Time;durP1;ratioP1;P1;durP2;ratioP2;P2;SDS_P1;SDS_P2;PMS_P1;PMS_P2;Temp;Humidity;BMP_temperature;BMP_pressure;BME280_temperature;BME280_humidity;BME280_pressure;Samples;Min_cycle;Max_cycle;Signal;HPM_P1;HPM_P2
2021/10/28 00:12:13;;;;;;;41.58;27.00;;;4.60;99.90;;;;;;4863248;29;20302;-70
2021/10/28 00:13:54;;;;;;;35.20;25.00;;;4.40;99.90;;;;;;4880295;29;20191;-73
2021/10/28 00:16:31;;;;;;;40.20;24.02;;;4.40;99.90;;;;;;4864845;29;20200;-70
2021/10/28 00:19:02;;;;;;;39.42;25.85;;;4.40;99.90;;;;;;4866225;29;20198;-70
2021/10/28 00:21:33;;;;;;;29.27;21.70;;;4.30;99.90;;;;;;4881813;29;20266;-69
2021/10/28 00:24:05;;;;;;;33.83;23.48;;;4.30;99.90;;;;;;4881423;29;20184;-70
2021/10/28 00:26:33;;;;;;;37.05;24.45;;;4.30;99.90;;;;;;4881726;29;20198;-70
2021/10/28 00:29:02;;;;;;;38.10;25.63;;;4.30;99.90;;;;;;4881748;29;20188;-70
2021/10/28 00:31:33;;;;;;;31.25;22.75;;;4.30;99.90;;;;;;4881685;29;20604;-70
2021/10/28 00:34:00;;;;;;;33.67;22.23;;;4.30;99.90;;;;;;4866043;29;20244;-70
2021/10/28 00:36:29;;;;;;;30.98;21.65;;;4.20;99.90;;;;;;4881534;29;20236;-71
2021/10/28 00:38:58;;;;;;;33.78;22.70;;;4.20;99.90;;;;;;4881723;29;20192;-70
2021/10/28 00:41:26;;;;;;;35.67;22.80;;;4.20;99.90;;;;;;4866023;29;20184;-69
2021/10/28 00:43:57;;;;;;;31.33;23.23;;;4.20;99.90;;;;;;4881562;29;20198;-70
2021/10/28 00:46:27;;;;;;;38.90;25.65;;;4.20;99.90;;;;;;4881716;29;20203;-72
2021/10/28 00:48:55;;;;;;;38.88;24.80;;;4.20;99.90;;;;;;4881656;29;20594;-69
2021/10/28 00:51:22;;;;;;;34.70;24.17;;;4.20;99.90;;;;;;4881361;29;20654;-69
2021/10/28 00:53:51;;;;;;;36.72;24.80;;;4.20;99.90;;;;;;4881619;29;20618;-72
2021/10/28 00:56:20;;;;;;;37.80;24.63;;;4.20;99.90;;;;;;4881312;29;20218;-68
2021/10/28 00:58:47;;;;;;;36.50;25.83;;;4.20;99.90;;;;;;4881197;29;20192;-70
2021/10/28 01:01:16;;;;;;;37.63;26.65;;;4.20;99.90;;;;;;4881099;29;20204;-72
2021/10/28 01:03:44;;;;;;;40.88;27.33;;;4.10;99.90;;;;;;4881383;29;20244;-72
2021/10/28 01:06:16;;;;;;;42.15;27.55;;;4.10;99.90;;;;;;4881282;29;20232;-72
2021/10/28 01:08:47;;;;;;;40.10;27.83;;;4.10;99.90;;;;;;4865374;29;20187;-72
2021/10/28 01:11:15;;;;;;;40.03;29.17;;;4.10;99.90;;;;;;4881191;29;20207;-69
2021/10/28 01:13:41;;;;;;;41.13;26.85;;;4.10;99.90;;;;;;4880903;29;20220;-70
2021/10/28 01:16:14;;;;;;;40.75;26.90;;;4.10;99.90;;;;;;4880869;29;20313;-70
2021/10/28 01:18:43;;;;;;;49.00;28.08;;;4.10;99.90;;;;;;4865444;29;20180;-72
2021/10/28 01:21:11;;;;;;;41.75;27.70;;;4.10;99.90;;;;;;4865029;29;20306;-70
2021/10/28 01:23:40;;;;;;;45.35;27.80;;;4.10;99.90;;;;;;4880881;29;20180;-72
2021/10/28 01:26:11;;;;;;;47.38;27.65;;;4.10;99.90;;;;;;4880094;29;20324;-72
2021/10/28 01:28:48;;;;;;;41.13;27.45;;;4.10;99.90;;;;;;4880796;29;20188;-70
2021/10/28 01:31:14;;;;;;;40.78;28.05;;;4.10;99.90;;;;;;4880306;29;20216;-70
2021/10/28 01:33:41;;;;;;;38.95;27.42;;;4.10;99.90;;;;;;4880685;29;20721;-70
2021/10/28 01:36:08;;;;;;;41.40;27.70;;;4.00;99.90;;;;;;4880435;29;20211;-70
2021/10/28 01:38:42;;;;;;;40.40;26.30;;;4.10;99.90;;;;;;4880577;29;20611;-72
2021/10/28 01:41:08;;;;;;;38.28;26.77;;;4.00;99.90;;;;;;4880386;29;20200;-69
2021/10/28 01:43:34;;;;;;;45.07;29.43;;;4.00;99.90;;;;;;4880672;29;20270;-70
2021/10/28 01:46:01;;;;;;;42.63;27.17;;;4.10;99.90;;;;;;4880228;29;21107;-70
2021/10/28 01:48:27;;;;;;;44.90;28.17;;;4.00;99.90;;;;;;4880804;29;20192;-69
2021/10/28 01:50:59;;;;;;;43.15;29.65;;;4.00;99.90;;;;;;4880257;29;20220;-72
2021/10/28 01:53:25;;;;;;;45.95;28.13;;;4.00;99.90;;;;;;4880243;29;20188;-72
2021/10/28 01:55:54;;;;;;;46.17;28.98;;;4.00;99.90;;;;;;4879994;29;20677;-70
2021/10/28 01:58:25;;;;;;;49.13;29.85;;;4.00;99.90;;;;;;4864616;29;20188;-70
2021/10/28 02:00:52;;;;;;;44.65;28.33;;;3.90;99.90;;;;;;4880031;29;20225;-70
2021/10/28 02:03:20;;;;;;;48.35;28.15;;;3.90;99.90;;;;;;4880153;29;20544;-72
2021/10/28 02:05:53;;;;;;;46.88;28.58;;;3.80;99.90;;;;;;4879931;29;20259;-73
2021/10/28 02:08:23;;;;;;;47.60;27.80;;;3.80;99.90;;;;;;4877768;29;20279;-71
2021/10/28 02:10:55;;;;;;;40.13;27.25;;;3.80;99.90;;;;;;4875943;29;20210;-72
2021/10/28 02:13:22;;;;;;;41.97;29.35;;;3.70;99.90;;;;;;4879730;29;20542;-72
2021/10/28 02:15:49;;;;;;;46.63;28.58;;;3.80;99.90;;;;;;4879698;29;20247;-72
2021/10/28 02:18:15;;;;;;;46.03;31.25;;;3.80;99.90;;;;;;4879967;29;20192;-70
2021/10/28 02:20:42;;;;;;;50.55;31.77;;;3.70;99.90;;;;;;4879722;29;20208;-70
2021/10/28 02:23:09;;;;;;;45.72;30.80;;;3.70;99.90;;;;;;4879739;29;20236;-70
2021/10/28 02:25:36;;;;;;;50.05;32.78;;;3.70;99.90;;;;;;4879404;29;20227;-70
2021/10/28 02:28:10;;;;;;;49.00;29.92;;;3.70;99.90;;;;;;4879733;29;20518;-72
2021/10/28 02:30:38;;;;;;;52.22;32.10;;;3.70;99.90;;;;;;4864220;29;20592;-72
2021/10/28 02:33:06;;;;;;;50.78;33.40;;;3.70;99.90;;;;;;4879137;29;20247;-68
2021/10/28 02:35:32;;;;;;;45.15;30.48;;;3.70;99.90;;;;;;4879251;29;20207;-70
2021/10/28 02:37:59;;;;;;;47.90;31.83;;;3.70;99.90;;;;;;4878582;29;20194;-72
2021/10/28 02:40:28;;;;;;;44.30;27.90;;;3.70;99.90;;;;;;4879543;29;20749;-72
2021/10/28 02:42:55;;;;;;;51.42;31.33;;;3.70;99.90;;;;;;4879462;29;20187;-70
2021/10/28 02:45:23;;;;;;;45.05;30.40;;;3.60;99.90;;;;;;4880612;29;20234;-72
2021/10/28 02:47:52;;;;;;;42.08;27.92;;;3.60;99.90;;;;;;4879093;29;20192;-72
2021/10/28 02:50:25;;;;;;;47.47;30.17;;;3.60;99.90;;;;;;4863830;29;20255;-72
2021/10/28 02:52:51;;;;;;;51.65;29.13;;;3.50;99.90;;;;;;4879423;29;20645;-70
2021/10/28 02:55:17;;;;;;;43.27;29.23;;;3.50;99.90;;;;;;4879226;29;20210;-72
2021/10/28 02:57:48;;;;;;;53.47;32.75;;;3.50;99.90;;;;;;4863490;29;20475;-73
2021/10/28 03:00:16;;;;;;;51.03;32.60;;;3.50;99.90;;;;;;4880585;29;20279;-70
2021/10/28 03:02:42;;;;;;;61.17;36.75;;;3.50;99.90;;;;;;4879091;29;20558;-69
2021/10/28 03:05:11;;;;;;;54.78;34.00;;;3.50;99.90;;;;;;4879155;29;20220;-72
2021/10/28 03:07:38;;;;;;;51.15;33.53;;;3.40;99.90;;;;;;4879043;29;20192;-70
2021/10/28 03:10:07;;;;;;;49.60;29.23;;;3.40;99.90;;;;;;4878851;29;20294;-70
2021/10/28 03:12:41;;;;;;;48.38;30.27;;;3.40;99.90;;;;;;4878990;29;20207;-72
2021/10/28 03:15:12;;;;;;;43.10;28.25;;;3.40;99.90;;;;;;4863992;29;20579;-71
2021/10/28 03:17:57;;;;;;;40.22;26.85;;;3.40;99.90;;;;;;4878955;29;20187;-70
2021/10/28 03:25:52;;;;;;;48.03;28.17;;;3.30;99.90;;;;;;4880537;29;20332;-71
2021/10/28 03:28:20;;;;;;;45.03;28.35;;;3.40;99.90;;;;;;4878710;29;20191;-69
2021/10/28 03:30:47;;;;;;;40.95;27.05;;;3.40;99.90;;;;;;4878701;29;20766;-70
2021/10/28 03:33:16;;;;;;;47.13;28.77;;;3.50;99.90;;;;;;4878632;29;20631;-71
2021/10/28 03:35:45;;;;;;;45.38;27.30;;;3.60;99.90;;;;;;4878876;29;20196;-71
2021/10/28 04:07:50;;;;;;;39.17;25.27;;;3.70;99.90;;;;;;4883069;29;20235;-71
2021/10/28 04:21:11;;;;;;;38.67;24.95;;;4.30;99.90;;;;;;4883305;29;20570;-70
2021/10/28 04:29:05;;;;;;;41.50;26.98;;;4.50;99.90;;;;;;4881171;29;20224;-72
2021/10/28 04:31:44;;;;;;;39.05;25.52;;;4.50;99.90;;;;;;4870528;29;20188;-72
2021/10/28 04:34:13;;;;;;;42.08;25.90;;;4.60;99.90;;;;;;4864980;29;20283;-72
2021/10/28 04:36:40;;;;;;;33.60;23.85;;;4.70;99.90;;;;;;4881204;29;20199;-70
2021/10/28 04:39:11;;;;;;;43.35;28.75;;;4.70;99.90;;;;;;4881338;29;20239;-70
2021/10/28 04:41:39;;;;;;;37.03;25.50;;;4.70;99.90;;;;;;4881483;29;20587;-72
2021/10/28 04:44:12;;;;;;;38.85;27.42;;;4.60;99.90;;;;;;4880260;29;20183;-72
2021/10/28 04:46:39;;;;;;;43.08;27.30;;;4.50;99.90;;;;;;4881351;29;20196;-70
2021/10/28 04:49:05;;;;;;;39.10;26.67;;;4.40;99.90;;;;;;4865042;29;20181;-70
2021/10/28 04:51:31;;;;;;;42.53;27.83;;;4.40;99.90;;;;;;4878307;29;20247;-69
2021/10/28 04:53:59;;;;;;;46.53;29.30;;;4.30;99.90;;;;;;4880892;29;21015;-70
2021/10/28 04:56:24;;;;;;;48.38;29.52;;;4.20;99.90;;;;;;4865741;29;20433;-69
2021/10/28 04:58:53;;;;;;;45.25;27.92;;;4.10;99.90;;;;;;4881582;29;20200;-72
2021/10/28 05:01:25;;;;;;;50.80;30.73;;;4.00;99.90;;;;;;4880254;29;20686;-71
2021/10/28 05:03:54;;;;;;;61.20;29.98;;;3.80;99.90;;;;;;4880482;29;20239;-70
2021/10/28 05:06:21;;;;;;;49.50;31.33;;;3.80;99.90;;;;;;4865797;29;20219;-70
2021/10/28 05:08:47;;;;;;;47.47;29.95;;;3.80;99.90;;;;;;4881356;29;20199;-71
2021/10/28 05:11:20;;;;;;;45.80;29.48;;;3.80;99.90;;;;;;4881167;29;20236;-71
2021/10/28 05:13:52;;;;;;;45.20;29.63;;;3.80;99.90;;;;;;4879700;29;20275;-71
2021/10/28 05:16:23;;;;;;;50.83;29.30;;;3.80;99.90;;;;;;4863527;29;20683;-71
2021/10/28 05:18:50;;;;;;;47.40;29.95;;;3.70;99.90;;;;;;4861925;29;20189;-70
2021/10/28 05:21:17;;;;;;;56.00;33.88;;;3.70;99.90;;;;;;4864672;29;20196;-71
2021/10/28 05:23:46;;;;;;;80.55;38.78;;;3.70;99.90;;;;;;4865039;29;20251;-69
2021/10/28 05:26:12;;;;;;;70.20;35.38;;;3.60;99.90;;;;;;4860314;29;20224;-71
2021/10/28 05:28:38;;;;;;;64.80;32.88;;;3.60;99.90;;;;;;4877656;29;20188;-70
2021/10/28 05:31:04;;;;;;;61.95;35.72;;;3.50;99.90;;;;;;4864612;29;20600;-72
2021/10/28 05:33:36;;;;;;;60.25;34.70;;;3.50;99.90;;;;;;4880171;29;20235;-72
2021/10/28 05:36:02;;;;;;;64.10;35.92;;;3.50;99.90;;;;;;4865034;29;20212;-69
2021/10/28 05:38:29;;;;;;;74.32;39.40;;;3.50;99.90;;;;;;4880919;29;20188;-69
2021/10/28 05:40:55;;;;;;;63.42;38.10;;;3.60;99.90;;;;;;4880183;29;20214;-71
2021/10/28 05:43:24;;;;;;;65.30;34.22;;;3.60;99.90;;;;;;4864891;29;20196;-70
2021/10/28 05:45:50;;;;;;;58.78;33.30;;;3.60;99.90;;;;;;4864561;29;20263;-72
2021/10/28 05:48:22;;;;;;;59.90;34.88;;;3.60;99.90;;;;;;4880209;29;20198;-71
2021/10/28 05:50:49;;;;;;;57.38;34.67;;;3.50;99.90;;;;;;4880122;29;20208;-70
2021/10/28 05:53:17;;;;;;;62.80;39.13;;;3.50;99.90;;;;;;4879657;29;20243;-70
2021/10/28 05:55:43;;;;;;;79.85;44.45;;;3.40;99.90;;;;;;4864452;29;20975;-72
2021/10/28 05:58:14;;;;;;;71.60;38.92;;;3.40;99.90;;;;;;4864768;29;20216;-71
2021/10/28 06:00:46;;;;;;;82.05;43.30;;;3.40;99.90;;;;;;4878881;29;20594;-72
2021/10/28 06:03:13;;;;;;;67.75;41.35;;;3.30;99.90;;;;;;4861861;29;20199;-73
2021/10/28 06:05:43;;;;;;;66.57;42.50;;;3.40;99.90;;;;;;4863049;29;20634;-73
2021/10/28 06:08:10;;;;;;;71.03;42.72;;;3.40;99.90;;;;;;4864724;29;20191;-69
2021/10/28 06:10:38;;;;;;;77.22;42.85;;;3.40;99.90;;;;;;4878732;29;20354;-69
2021/10/28 06:13:07;;;;;;;75.78;41.25;;;3.50;99.90;;;;;;4879863;29;20221;-69
2021/10/28 06:15:35;;;;;;;61.00;39.42;;;3.50;99.90;;;;;;4879222;29;20753;-70
2021/10/28 06:18:23;;;;;;;64.47;37.20;;;3.50;99.90;;;;;;4864309;29;20603;-69
2021/10/28 06:20:48;;;;;;;59.95;38.97;;;3.60;99.90;;;;;;4879992;29;20713;-69
2021/10/28 06:23:14;;;;;;;59.75;39.53;;;3.70;99.90;;;;;;4878837;29;20192;-72
2021/10/28 06:25:41;;;;;;;63.20;39.88;;;3.70;99.90;;;;;;4878477;29;20227;-72
2021/10/28 06:28:07;;;;;;;61.10;39.28;;;3.80;99.90;;;;;;4875215;29;20188;-69
2021/10/28 06:30:35;;;;;;;62.63;38.60;;;3.90;99.90;;;;;;4877508;29;20624;-70
2021/10/28 06:33:04;;;;;;;66.03;41.45;;;4.00;99.90;;;;;;4862027;29;20709;-69
2021/10/28 06:35:30;;;;;;;65.22;40.25;;;4.10;99.90;;;;;;4851311;29;20203;-69
2021/10/28 06:37:58;;;;;;;65.23;40.20;;;4.20;99.90;;;;;;4865464;29;20240;-72
2021/10/28 06:40:26;;;;;;;60.72;38.17;;;4.30;99.90;;;;;;4869336;29;20440;-69
2021/10/28 06:42:54;;;;;;;65.97;42.70;;;4.40;99.90;;;;;;4868090;29;20256;-69
2021/10/28 06:45:20;;;;;;;85.55;51.45;;;4.50;99.90;;;;;;4863245;29;20244;-69
2021/10/28 06:47:47;;;;;;;77.82;49.03;;;4.70;99.90;;;;;;4873887;29;20190;-69
2021/10/28 06:50:29;;;;;;;86.15;48.85;;;4.80;99.90;;;;;;4868672;29;20200;-73
2021/10/28 06:53:11;;;;;;;70.18;44.15;;;5.00;99.90;;;;;;4871003;29;20184;-70
2021/10/28 06:55:57;;;;;;;63.28;38.63;;;5.10;99.90;;;;;;4875887;29;20298;-72
2021/10/28 07:03:58;;;;;;;67.60;44.45;;;5.60;99.90;;;;;;4878189;29;20286;-73
2021/10/28 07:06:28;;;;;;;57.10;39.15;;;5.90;99.90;;;;;;4868474;29;20203;-70
2021/10/28 07:09:16;;;;;;;55.97;37.17;;;6.20;99.90;;;;;;4872278;29;20200;-73
2021/10/28 07:11:42;;;;;;;57.22;35.25;;;6.60;99.90;;;;;;4869907;29;20212;-72
2021/10/28 07:14:10;;;;;;;54.03;34.05;;;7.10;99.90;;;;;;4869604;29;20657;-70
2021/10/28 07:16:43;;;;;;;48.90;33.38;;;7.50;99.90;;;;;;4875968;29;20184;-73
2021/10/28 07:19:34;;;;;;;50.40;31.30;;;7.80;99.90;;;;;;4879541;29;20340;-73
2021/10/28 07:27:34;;;;;;;42.45;28.55;;;8.60;99.90;;;;;;4879293;29;20196;-70
2021/10/28 07:35:52;;;;;;;45.05;28.67;;;9.90;99.90;;;;;;4877640;29;20232;-73
2021/10/28 07:38:41;;;;;;;38.53;25.98;;;10.70;99.90;;;;;;4857802;29;20714;-72
2021/10/28 07:57:55;;;;;;;38.00;25.33;;;17.20;99.90;;;;;;4876766;29;20513;-74
2021/10/28 08:04:48;;;;;;;32.77;24.10;;;17.90;99.90;;;;;;4862944;29;20462;-74
2021/10/28 08:19:48;;;;;;;32.77;24.67;;;21.10;91.20;;;;;;4878073;29;20469;-70
2021/10/28 08:30:27;;;;;;;32.43;22.90;;;20.80;90.00;;;;;;4866878;29;20466;-70
2021/10/28 08:32:56;;;;;;;26.50;22.30;;;20.20;89.40;;;;;;4853644;29;20475;-73
2021/10/28 08:36:06;;;;;;;32.53;23.93;;;19.70;90.20;;;;;;4878342;29;20461;-73
2021/10/28 08:38:35;;;;;;;33.50;23.27;;;19.20;90.70;;;;;;4867635;29;20450;-70
2021/10/28 08:41:07;;;;;;;34.20;24.20;;;18.70;91.30;;;;;;4869584;29;20450;-73
2021/10/28 08:43:40;;;;;;;36.73;25.10;;;18.40;91.20;;;;;;4877251;29;20461;-73
2021/10/28 08:46:08;;;;;;;34.20;23.27;;;18.30;91.10;;;;;;4878162;29;20475;-69
2021/10/28 08:48:40;;;;;;;29.23;22.17;;;18.00;91.50;;;;;;4866515;29;20453;-70
2021/10/28 08:51:21;;;;;;;31.17;23.47;;;17.50;92.40;;;;;;4874509;29;20478;-72
2021/10/28 08:57:08;;;;;;;27.37;21.30;;;16.70;92.70;;;;;;4882242;29;20466;-71
2021/10/28 09:19:30;;;;;;;28.23;21.30;;;16.50;93.10;;;;;;4882122;29;20503;-71
2021/10/28 09:26:49;;;;;;;28.33;19.47;;;15.60;95.00;;;;;;4868273;29;20451;-74
2021/10/28 09:35:13;;;;;;;22.90;16.13;;;15.70;94.80;;;;;;4876707;29;20444;-71
2021/10/28 09:44:02;;;;;;;26.60;17.80;;;15.50;94.70;;;;;;4866623;29;20486;-74
2021/10/28 09:46:46;;;;;;;23.77;16.67;;;15.60;94.60;;;;;;4873707;29;20498;-74
2021/10/28 09:52:31;;;;;;;27.97;18.47;;;15.60;94.80;;;;;;4869132;29;20543;-74
2021/10/28 09:58:05;;;;;;;20.70;16.87;;;15.70;94.60;;;;;;4871826;29;20514;-74
2021/10/28 10:00:39;;;;;;;25.10;17.03;;;15.70;94.50;;;;;;4876706;29;20490;-71
2021/10/28 10:03:11;;;;;;;22.00;16.50;;;15.60;94.50;;;;;;4868890;29;20960;-69
2021/10/28 10:05:38;;;;;;;22.93;16.30;;;15.70;94.60;;;;;;4867819;29;20483;-70
2021/10/28 10:08:07;;;;;;;21.70;15.80;;;15.70;94.20;;;;;;4876611;29;20446;-74
2021/10/28 10:10:35;;;;;;;25.17;16.93;;;15.70;93.90;;;;;;4867026;29;20459;-74
2021/10/28 10:13:06;;;;;;;23.83;16.17;;;15.70;93.80;;;;;;4865443;29;20470;-75
2021/10/28 10:15:32;;;;;;;21.23;15.40;;;15.70;94.10;;;;;;4873059;29;20799;-71
2021/10/28 10:18:03;;;;;;;21.07;14.93;;;15.70;94.00;;;;;;4856998;29;20465;-70
2021/10/28 10:21:02;;;;;;;25.33;16.10;;;15.80;94.10;;;;;;4861045;29;20542;-74
2021/10/28 10:26:57;;;;;;;23.23;14.47;;;15.80;94.00;;;;;;4867289;29;20525;-75
2021/10/28 11:26:46;;;;;;;23.00;14.63;;;16.20;92.60;;;;;;4892848;29;20481;-71
2021/10/28 12:25:07;;;;;;;20.27;14.30;;;16.60;91.40;;;;;;4878916;29;20506;-72
2021/10/28 12:45:01;;;;;;;20.60;13.57;;;16.80;91.70;;;;;;4880830;29;20477;-72
2021/10/28 12:50:04;;;;;;;18.83;13.40;;;16.80;91.30;;;;;;4892334;29;20445;-73
2021/10/28 13:53:47;;;;;;;19.53;13.17;;;17.30;90.30;;;;;;4873038;29;20615;-72
2021/10/28 14:26:13;;;;;;;23.50;14.53;;;17.10;90.30;;;;;;4865780;29;20481;-73
2021/10/28 14:58:34;;;;;;;38.83;23.63;;;17.00;90.60;;;;;;4865064;29;20474;-71
2021/10/28 15:29:17;;;;;;;31.67;17.73;;;16.00;93.30;;;;;;4856834;29;20493;-74
2021/10/28 15:32:18;;;;;;;34.60;20.60;;;15.90;93.70;;;;;;4852855;29;20481;-72
2021/10/28 15:35:06;;;;;;;31.03;18.90;;;15.70;93.80;;;;;;4856818;29;20467;-71
2021/10/28 15:49:04;;;;;;;30.97;21.20;;;14.90;95.00;;;;;;4863057;29;20464;-72
2021/10/28 16:23:25;;;;;;;34.73;21.57;;;12.90;97.80;;;;;;4864329;29;20438;-73
2021/10/28 16:25:51;;;;;;;36.97;24.23;;;12.80;98.10;;;;;;4841565;29;21075;-71
2021/10/28 16:28:18;;;;;;;50.77;25.30;;;12.60;98.10;;;;;;4847568;29;20428;-70
2021/10/28 16:31:21;;;;;;;40.22;25.15;;;12.50;98.50;;;;;;4843539;29;20991;-74
2021/10/28 16:38:43;;;;;;;36.22;24.98;;;12.20;99.00;;;;;;4866280;29;20549;-73
2021/10/28 16:41:46;;;;;;;32.00;22.02;;;12.10;99.20;;;;;;5834374;23;20202;-74
2021/10/28 16:44:20;;;;;;;36.60;22.10;;;11.90;99.20;;;;;;4850154;29;20197;-74
2021/10/28 16:46:47;;;;;;;30.45;21.90;;;11.80;99.40;;;;;;4864291;29;20706;-74
2021/10/28 16:49:14;;;;;;;31.33;21.10;;;11.70;99.60;;;;;;4845632;29;20191;-72
2021/10/28 16:51:41;;;;;;;32.95;22.00;;;11.60;99.80;;;;;;4858990;29;20606;-73
2021/10/28 16:54:10;;;;;;;32.67;21.70;;;11.60;99.90;;;;;;4854553;29;20196;-72
2021/10/28 16:56:44;;;;;;;36.63;22.45;;;11.50;99.90;;;;;;4845734;29;20644;-74
2021/10/28 16:59:15;;;;;;;28.17;21.02;;;11.40;99.90;;;;;;4846416;29;20188;-73
2021/10/28 17:01:46;;;;;;;34.50;21.13;;;11.30;99.90;;;;;;4861462;29;20192;-74
2021/10/28 17:04:12;;;;;;;24.40;20.10;;;11.30;99.90;;;;;;4855408;29;20698;-72
2021/10/28 17:06:54;;;;;;;37.20;21.77;;;11.20;99.90;;;;;;4860812;29;20605;-72
2021/10/28 17:09:25;;;;;;;28.65;20.20;;;11.10;99.90;;;;;;4848853;29;20263;-72
2021/10/28 17:11:51;;;;;;;29.65;20.15;;;11.00;99.90;;;;;;4855074;29;20274;-73
2021/10/28 17:14:22;;;;;;;28.98;19.90;;;10.90;99.90;;;;;;4853716;29;20307;-74
2021/10/28 17:17:09;;;;;;;32.70;20.10;;;10.90;99.90;;;;;;4859736;29;20275;-71
2021/10/28 17:19:48;;;;;;;35.70;21.92;;;10.80;99.90;;;;;;4858676;29;20235;-74
2021/10/28 17:22:15;;;;;;;26.98;18.73;;;10.80;99.90;;;;;;4846909;29;20191;-74
2021/10/28 17:24:52;;;;;;;33.05;20.30;;;10.70;99.90;;;;;;4854008;29;20208;-71
2021/10/28 17:27:19;;;;;;;29.48;20.52;;;10.60;99.90;;;;;;4864827;29;20188;-74
2021/10/28 17:29:47;;;;;;;30.40;21.15;;;10.60;99.90;;;;;;4864979;29;20208;-72
2021/10/28 17:32:15;;;;;;;32.80;20.75;;;10.50;99.90;;;;;;4863587;29;20540;-74
2021/10/28 17:35:04;;;;;;;33.28;19.75;;;10.40;99.90;;;;;;4858581;29;20259;-71
2021/10/28 17:37:35;;;;;;;31.00;20.45;;;10.30;99.90;;;;;;4840370;29;20196;-73
2021/10/28 17:40:09;;;;;;;33.10;20.42;;;10.30;99.90;;;;;;4848903;29;20200;-73
2021/10/28 17:43:22;;;;;;;28.25;20.42;;;10.20;99.90;;;;;;4846057;29;20638;-73
2021/10/28 17:45:55;;;;;;;33.53;22.00;;;10.20;99.90;;;;;;4846312;29;20909;-72
2021/10/28 17:48:22;;;;;;;33.25;19.42;;;10.10;99.90;;;;;;4845198;29;20244;-73
2021/10/28 17:51:28;;;;;;;30.67;21.23;;;10.10;99.90;;;;;;4853366;29;20204;-73
2021/10/28 17:56:30;;;;;;;33.22;19.88;;;10.00;99.90;;;;;;5706065;23;20249;-71
2021/10/28 17:59:04;;;;;;;37.47;20.17;;;9.90;99.90;;;;;;4882654;29;20183;-74
2021/10/28 18:01:42;;;;;;;35.72;19.83;;;9.80;99.90;;;;;;4861873;29;20188;-71
2021/10/28 18:04:11;;;;;;;34.92;21.08;;;9.80;99.90;;;;;;4852779;29;20176;-73
2021/10/28 18:06:40;;;;;;;35.10;21.00;;;9.70;99.90;;;;;;4855292;29;20322;-73
2021/10/28 18:09:07;;;;;;;30.85;19.70;;;9.70;99.90;;;;;;4845428;29;20204;-73
2021/10/28 18:11:33;;;;;;;27.08;19.00;;;9.60;99.90;;;;;;4849498;29;20185;-73
2021/10/28 18:14:10;;;;;;;29.77;20.80;;;9.50;99.90;;;;;;4843204;29;20195;-72
2021/10/28 18:16:37;;;;;;;30.48;20.00;;;9.50;99.90;;;;;;4865170;29;20207;-73
2021/10/28 18:19:04;;;;;;;33.20;20.00;;;9.40;99.90;;;;;;4856129;29;20271;-73
2021/10/28 18:21:30;;;;;;;37.17;21.50;;;9.40;99.90;;;;;;4845412;29;20980;-74
2021/10/28 18:23:57;;;;;;;38.10;21.20;;;9.30;99.90;;;;;;4857213;29;20172;-73
2021/10/28 18:26:28;;;;;;;36.20;24.90;;;9.30;99.90;;;;;;4848843;29;20224;-73
2021/10/28 18:29:01;;;;;;;39.90;28.33;;;9.20;99.90;;;;;;4845554;29;20268;-73
2021/10/28 18:31:40;;;;;;;34.30;22.45;;;9.10;99.90;;;;;;4851047;29;20184;-71
2021/10/28 18:34:15;;;;;;;42.70;25.48;;;9.10;99.90;;;;;;4849949;29;20255;-71
2021/10/28 18:36:42;;;;;;;34.25;22.98;;;9.00;99.90;;;;;;4858126;29;20191;-73
2021/10/28 18:39:13;;;;;;;33.83;22.87;;;9.00;99.90;;;;;;4863757;29;20180;-72
2021/10/28 18:41:44;;;;;;;33.22;23.98;;;9.00;99.90;;;;;;4863500;29;20414;-72
2021/10/28 18:46:40;;;;;;;42.90;25.67;;;8.90;99.90;;;;;;4878349;29;20693;-72
2021/10/28 18:49:08;;;;;;;36.50;24.80;;;8.90;99.90;;;;;;4880104;29;20259;-73
2021/10/28 18:51:36;;;;;;;39.10;26.23;;;8.90;99.90;;;;;;4881277;29;20791;-74
2021/10/28 18:54:14;;;;;;;43.85;28.23;;;8.90;99.90;;;;;;4863894;29;20282;-73
2021/10/28 18:57:10;;;;;;;54.25;33.60;;;8.90;99.90;;;;;;4854910;29;20192;-71
2021/10/28 19:03:22;;;;;;;42.35;28.58;;;8.90;99.90;;;;;;4877425;29;20203;-75
2021/10/28 19:06:03;;;;;;;42.40;28.80;;;8.80;99.90;;;;;;4863415;29;20223;-72
2021/10/28 19:08:46;;;;;;;46.13;30.70;;;8.70;99.90;;;;;;4862782;29;20199;-74
2021/10/28 19:11:27;;;;;;;54.15;34.97;;;8.60;99.90;;;;;;4879449;29;20212;-71
2021/10/28 19:13:55;;;;;;;67.53;37.97;;;8.50;99.90;;;;;;4863116;29;20187;-71
2021/10/28 19:16:22;;;;;;;59.05;36.38;;;8.40;99.90;;;;;;4863311;29;20259;-73
2021/10/28 19:18:48;;;;;;;74.22;41.63;;;8.30;99.90;;;;;;4862667;29;20180;-74
2021/10/28 19:21:23;;;;;;;74.13;41.55;;;8.30;99.90;;;;;;4851516;29;20243;-72
2021/10/28 19:26:35;;;;;;;110.07;57.00;;;8.20;99.90;;;;;;4885939;24;20247;-71
2021/10/28 19:29:03;;;;;;;124.30;63.60;;;8.10;99.90;;;;;;4862527;29;20549;-74
2021/10/28 19:31:34;;;;;;;126.80;68.38;;;8.00;99.90;;;;;;4862850;29;20192;-70
2021/10/28 19:41:08;;;;;;;133.50;72.72;;;8.00;99.90;;;;;;5255418;24;20294;-94
2021/10/28 19:46:19;;;;;;;116.47;62.95;;;7.90;99.90;;;;;;4878851;29;20252;-94
2021/10/28 19:48:48;;;;;;;133.52;66.88;;;7.90;99.90;;;;;;4879529;29;20180;-95
2021/10/28 19:51:16;;;;;;;110.63;60.50;;;7.90;99.90;;;;;;4879677;29;20779;-94
2021/10/28 19:53:44;;;;;;;108.68;61.63;;;7.90;99.90;;;;;;4865237;29;20189;-94
2021/10/28 19:56:20;;;;;;;91.25;55.47;;;7.90;99.90;;;;;;4863523;29;20247;-95
2021/10/28 19:58:55;;;;;;;97.75;56.83;;;7.80;99.90;;;;;;4863089;29;20652;-94
2021/10/28 20:06:45;;;;;;;89.13;51.67;;;7.70;99.90;;;;;;4880548;29;20208;-94
2021/10/28 20:22:36;;;;;;;76.65;47.67;;;7.40;99.90;;;;;;4885122;29;20192;-94
2021/10/28 20:25:06;;;;;;;103.30;54.00;;;7.40;99.90;;;;;;4881410;29;20208;-95
2021/10/28 20:27:32;;;;;;;103.75;53.70;;;7.40;99.90;;;;;;4880625;29;20223;-94
2021/10/28 20:29:58;;;;;;;101.30;53.58;;;7.30;99.90;;;;;;4864315;29;20212;-94
2021/10/28 20:32:25;;;;;;;97.77;54.43;;;7.30;99.90;;;;;;4866777;29;20538;-94
2021/10/28 20:35:07;;;;;;;141.75;73.00;;;7.20;99.90;;;;;;4892300;29;20766;-94
2021/10/28 20:37:34;;;;;;;108.50;54.90;;;7.20;99.90;;;;;;4888831;29;20614;-94
2021/10/28 20:40:00;;;;;;;106.55;57.15;;;7.20;99.90;;;;;;4885685;29;20245;-94
2021/10/28 20:42:36;;;;;;;110.70;58.80;;;7.20;99.90;;;;;;4888623;29;20180;-94
2021/10/28 20:45:06;;;;;;;122.03;61.42;;;7.20;99.90;;;;;;4890522;29;20485;-94
2021/10/28 20:47:31;;;;;;;112.38;55.25;;;7.10;99.90;;;;;;4898846;29;20164;-94
2021/10/28 20:49:57;;;;;;;100.77;54.13;;;7.10;99.90;;;;;;4894677;29;20592;-93
2021/10/28 20:52:23;;;;;;;99.87;56.10;;;7.00;99.90;;;;;;4896673;29;20409;-94
2021/10/28 20:54:49;;;;;;;121.50;63.37;;;7.00;99.90;;;;;;4884612;29;20200;-95
2021/10/28 20:57:17;;;;;;;125.97;64.45;;;6.90;99.90;;;;;;4883783;29;20436;-94
2021/10/28 20:59:43;;;;;;;118.50;59.58;;;6.90;99.90;;;;;;4888548;29;20737;-94
2021/10/28 21:02:08;;;;;;;90.57;49.43;;;6.90;99.90;;;;;;4883999;29;20179;-94
2021/10/28 21:04:34;;;;;;;101.13;50.33;;;6.80;99.90;;;;;;4882605;29;20211;-95
2021/10/28 21:07:00;;;;;;;78.63;47.80;;;6.80;99.90;;;;;;4883463;29;20390;-93
2021/10/28 21:09:26;;;;;;;78.43;47.80;;;6.80;99.90;;;;;;4883326;29;20212;-94
2021/10/28 21:11:51;;;;;;;82.70;44.90;;;6.70;99.90;;;;;;4883632;29;20187;-94
2021/10/28 21:14:18;;;;;;;78.93;48.77;;;6.70;99.90;;;;;;4885762;29;20220;-93
2021/10/28 21:16:44;;;;;;;82.95;47.72;;;6.60;99.90;;;;;;4896667;29;20188;-93
2021/10/28 21:19:10;;;;;;;82.22;48.08;;;6.60;99.90;;;;;;4887891;29;20686;-94
2021/10/28 21:21:38;;;;;;;78.87;47.60;;;6.60;99.90;;;;;;4883977;29;20184;-93
2021/10/28 21:24:07;;;;;;;73.50;45.40;;;6.50;99.90;;;;;;4882860;29;20418;-94
2021/10/28 21:26:36;;;;;;;77.13;43.97;;;6.50;99.90;;;;;;4885290;29;20199;-94
2021/10/28 21:29:03;;;;;;;77.85;45.65;;;6.50;99.90;;;;;;4883794;29;20180;-94
2021/10/28 21:31:29;;;;;;;69.25;43.17;;;6.50;99.90;;;;;;4884699;29;20175;-94
2021/10/28 21:33:54;;;;;;;69.30;43.17;;;6.50;99.90;;;;;;4883814;29;20187;-93
2021/10/28 21:36:21;;;;;;;65.43;38.70;;;6.40;99.90;;;;;;4883148;29;20195;-93
2021/10/28 21:38:47;;;;;;;62.65;39.17;;;6.40;99.90;;;;;;4886738;29;20300;-94
2021/10/28 21:41:12;;;;;;;65.90;37.83;;;6.30;99.90;;;;;;4883244;29;20259;-94
2021/10/28 21:43:38;;;;;;;58.53;40.40;;;6.30;99.90;;;;;;4892409;29;20176;-93
2021/10/28 21:46:04;;;;;;;65.10;40.07;;;6.30;99.90;;;;;;4884487;29;20230;-93
2021/10/28 21:48:30;;;;;;;63.73;38.87;;;6.30;99.90;;;;;;4870709;29;20180;-92
2021/10/28 21:51:00;;;;;;;68.23;39.33;;;6.20;99.90;;;;;;4869465;29;20489;-94